28. September 2022

Uhrzeit Code Wetter Temp. Sichtweite Wolkendecke Wind METAR/SPECI
14:30
M
17 °C 10 km+ 1.600 ft 270° 270° 9 kt METAR LFSL 281230Z AUTO 27009KT 220V320 9999 -RA BKN016/// BKN021/// BKN026/// ///CB 17/14 Q1005 TEMPO 27015G25KT 2000 SHRA BKN005 BKN020CB BKN025TCU
14:00
M
17 °C 10 km+ 1.400 ft 270° 270° 9 kt METAR LFSL 281200Z AUTO 27009KT 210V310 9999 BKN014/// BKN068/// BKN110/// //////CB 17/14 Q1005 TEMPO 27015G25KT 2000 SHRA BKN005 BKN020CB BKN025TCU
13:30
M
16 °C 10 km+ 1.200 ft 280° 280° 10 - 20 kt METAR LFSL 281130Z AUTO 28010G20KT 210V310 9999 -RADZ BKN012/// BKN031/// BKN049/// //////CB 16/14 Q1005 TEMPO 2000 SHRA BKN005 BKN020CB BKN025TCU
13:00
M
16 °C 10 km+ 2.000 ft 270° 270° 9 kt METAR LFSL 281100Z AUTO 27009KT 210V310 9999 -RA SCT014/// BKN020/// BKN028/// ///TCU 16/14 Q1006 TEMPO 27015G25KT 2500 RA BKN005 BKN020CB BKN025TCU
12:30
M
17 °C 10 km+ 1.800 ft 280° 280° 9 kt METAR LFSL 281030Z AUTO 28009KT 220V320 9999 BKN018/// BKN024/// BKN035/// ///TCU 17/14 Q1005 TEMPO 27015G25KT 2500 RA BKN005 BKN020CB BKN025TCU
12:00
M
16 °C 10 km+ 2.100 ft 260° 260° 7 - 17 kt METAR LFSL 281000Z AUTO 26007G17KT 190V320 9999 SCT014/// BKN021/// OVC032/// ///TCU 16/14 Q1006 TEMPO 2000 SHRA BKN005 BKN020CB BKN025TCU
11:30
M
16 °C 10 km+ 1.300 ft 270° 270° 9 kt METAR LFSL 280930Z AUTO 27009KT 190V340 9999 OVC013 16/14 Q1006 TEMPO 27015G25KT 2000 SHRA BKN005 BKN020CB BKN025TCU
11:00
M
15 °C 10 km+ 1.300 ft 260° 260° 7 kt METAR LFSL 280900Z AUTO 26007KT 190V360 9999 BKN013 OVC020 15/14 Q1006 TEMPO 27015G25KT 2000 SHRA BKN005 BKN020CB BKN025TCU
10:30
M
15 °C 10 km+ 1.100 ft 270° 270° 8 - 18 kt METAR LFSL 280830Z AUTO 27008G18KT 170V310 9999 OVC011 15/13 Q1006 TEMPO 2000 SHRA BKN005 BKN020CB BKN025TCU
10:00
I
15 °C 10 km+ 900 ft 270° 270° 8 kt METAR LFSL 280800Z AUTO 27008KT 220V300 9999 BKN009 OVC015 15/14 Q1006 TEMPO 29015G25KT 2000 SHRA BKN005 BKN020CB BKN025TCU
09:30
I
14 °C 10 km+ 900 ft 280° 280° 9 kt METAR LFSL 280730Z AUTO 28009KT 230V310 9999 DZ BKN009/// BKN016/// OVC028/// //////TCU 14/13 Q1006 TEMPO 29015G25KT 3000 SHRA BKN005 BKN020CB BKN025TCU
09:00
I
14 °C 2,6 km 600 ft 260° 260° 6 kt METAR LFSL 280700Z AUTO 26006KT 220V320 2600 RA BR OVC006/// ///TCU 14/14 Q1006 TEMPO 29015G25KT 3000 SHRA
08:30
I
14 °C 10 km+ 800 ft 250° 250° 6 kt METAR LFSL 280630Z AUTO 25006KT 190V310 9999 BKN008/// OVC017/// ///CB 14/13 Q1006 TEMPO 29015G25KT 3000 SHRA
08:00
I
14 °C 10 km+ 600 ft 250° 250° 6 kt METAR LFSL 280600Z AUTO 25006KT 190V300 9999 BKN006 OVC012 14/13 Q1006 TEMPO 29015G25KT 3000 SHRA BKN005 BKN025TCU
07:30
I
14 °C 10 km+ 600 ft 250° 250° 5 kt METAR LFSL 280530Z AUTO 25005KT 190V320 9999 OVC006 14/13 Q1006 TEMPO 29015G25KT 3000 SHRA BKN005 BKN025TCU
07:00
I
14 °C 4,6 km 500 ft 260° 260° 5 kt METAR LFSL 280500Z AUTO 26005KT 190V310 4600 -DZ BR BKN005 OVC010 14/13 Q1007 TEMPO 29015G25KT SHRA BKN005 BKN025TCU
06:30
I
14 °C 4,4 km 500 ft 270° 270° 6 kt METAR LFSL 280430Z AUTO 27006KT 210V320 4400 -DZ BR OVC005 14/13 Q1007 TEMPO 29015G25KT SHRA BKN005 BKN025TCU
06:00
I
14 °C 4,4 km 600 ft 270° 270° 5 kt METAR LFSL 280400Z AUTO 27005KT 200V340 4400 -DZ BR BKN006 OVC011 14/14 Q1007 TEMPO 29015G25KT SHRA BKN005 BKN025TCU
05:30
I
14 °C 3,5 km 500 ft 280° 280° 9 kt METAR LFSL 280330Z AUTO 28009KT 230V320 3500 -RA BR BKN005 OVC010 14/14 Q1007 TEMPO 29015G25KT SHRA BKN005 BKN025TCU
05:00
I
15 °C 2,9 km 500 ft 280° 280° 6 kt METAR LFSL 280300Z AUTO 28006KT 240V310 2900 RA BR BKN005 OVC013 15/14 Q1007 TEMPO 29015G25KT 4000 SHRA BKN005 BKN025TCU
04:30
I
15 °C 5 km 800 ft 270° 270° 9 - 19 kt METAR LFSL 280230Z AUTO 27009G19KT 180V320 5000 -RADZ BR OVC008 15/14 Q1007 TEMPO SHRA BKN005 BKN025TCU
04:00
I
15 °C 10 km+ 600 ft 270° 270° 6 kt METAR LFSL 280200Z AUTO 27006KT 210V350 9999 BKN006 OVC011 15/14 Q1007
03:30
M
15 °C 10 km+ 1.100 ft 280° 280° 8 kt METAR LFSL 280130Z AUTO 28008KT 230V320 9999 OVC011 15/14 Q1008
03:00
I
15 °C 10 km+ 700 ft 280° 280° 8 kt METAR LFSL 280100Z AUTO 28008KT 210V340 9999 BKN007 OVC014 15/14 Q1008
02:30
I
15 °C 10 km+ 600 ft 260° 260° 7 kt METAR LFSL 280030Z AUTO 26007KT 150V320 9999 BKN006 OVC010 15/14 Q1008
02:00
I
15 °C 4,6 km 500 ft 260° 260° 7 - 18 kt METAR LFSL 280000Z AUTO 26007G18KT 190V310 9999 4600 BKN005/// BKN017/// OVC027/// //////TCU 15/14 Q1008
01:30
I
14 °C 2,6 km 500 ft 240° 240° 6 kt METAR LFSL 272330Z AUTO 24006KT 190V310 7000 2600 -RADZ BKN005/// OVC017/// ///TCU 14/14 Q1009
01:00
I
14 °C 5 km 600 ft 250° 250° 6 kt METAR LFSL 272300Z AUTO 25006KT 170V310 5000 +RADZ BR OVC006 14/14 Q1009
00:30
I
14 °C 6 km 600 ft Var Var 5 kt METAR LFSL 272230Z AUTO VRB05KT 6000 -DZ OVC006 14/13 Q1009
00:00
I
14 °C 4,1 km 500 ft Var Var 6 kt METAR LFSL 272200Z AUTO VRB06KT 4100 -RA BR OVC005 14/13 Q1010

27. September 2022

Uhrzeit Code Wetter Temp. Sichtweite Wolkendecke Wind METAR/SPECI
23:30
I
14 °C 7 km 600 ft 240° 240° 6 - 17 kt METAR LFSL 272130Z AUTO 24006G17KT 180V290 7000 -RA OVC006/// ///TCU 14/13 Q1010
23:00
I
13 °C 5 km 700 ft 230° 230° 5 kt METAR LFSL 272100Z AUTO 23005KT 170V300 5000 -RA BR BKN007/// OVC014/// //////TCU 13/12 Q1010
22:30
I
13 °C 4,4 km 1.400 ft 220° 220° 4 kt METAR LFSL 272030Z AUTO 22004KT 170V290 4400 -RADZ BR OVC014 13/12 Q1011 TEMPO 2000 RADZ BKN005
22:00
M
13 °C 10 km+ 1.700 ft 220° 220° 6 kt METAR LFSL 272000Z AUTO 22006KT 170V260 9999 -RADZ BKN017 OVC023 13/12 Q1011 TEMPO 2000 RADZ BKN005
21:30
V
13 °C 10 km+ 3.000 ft 240° 240° 3 kt METAR LFSL 271930Z AUTO 24003KT 160V310 9999 -RA BKN030 BKN040 OVC048 13/11 Q1011 TEMPO 2000 RADZ BKN005
21:00
V
14 °C 10 km+ 3.700 ft 250° 250° 4 kt METAR LFSL 271900Z AUTO 25004KT 180V310 9999 -RA FEW024 BKN037 OVC044 14/11 Q1011 TEMPO 2000 RADZ BKN005
20:30
M
14 °C 10 km+ 2.000 ft 260° 260° 4 kt METAR LFSL 271830Z AUTO 26004KT 190V320 9999 BKN020 OVC037 14/11 Q1012 TEMPO 2000 RADZ BKN005
20:00
M
14 °C 10 km+ 2.500 ft 270° 270° 5 kt METAR LFSL 271800Z AUTO 27005KT 170V310 9999 BKN025 BKN033 OVC041 14/10 Q1012 BECMG 4000 -RA BKN010
19:30
V
15 °C 10 km+ 3.000 ft 270° 270° 7 kt METAR LFSL 271730Z AUTO 27007KT 180V330 9999 BKN030 OVC037 15/10 Q1012 BECMG 4000 -RA BKN010
19:00
V
15 °C 10 km+ 3.400 ft 240° 240° 3 kt METAR LFSL 271700Z AUTO 24003KT 170V300 9999 FEW029 BKN034 BKN044 15/11 Q1012 TEMPO BKN010 BKN015TCU BECMG 4000 -RA
18:30
V
15 °C 10 km+ 5.200 ft 250° 250° 5 kt METAR LFSL 271630Z AUTO 25005KT 180V300 9999 FEW023 SCT034 BKN052 15/11 Q1012 TEMPO BKN010 BKN015TCU BECMG 4000 -RA
18:00
M
15 °C 10 km+ 2.400 ft 280° 280° 4 kt METAR LFSL 271600Z AUTO 28004KT 190V320 9999 FEW014 BKN024 BKN060 15/12 Q1012 TEMPO BKN010 BKN015TCU
17:30
M
14 °C 10 km+ 1.400 ft 320° 320° 6 kt METAR LFSL 271530Z AUTO 32006KT 300V360 9999 OVC014 14/12 Q1012 TEMPO BKN015TCU
17:00
M
14 °C 10 km+ 1.400 ft 270° 270° 7 kt METAR LFSL 271500Z AUTO 27007KT 200V320 9999 -RA BKN014 BKN019 BKN026 14/12 Q1012 TEMPO BKN015TCU
16:30
M
14 °C 10 km+ 1.500 ft 250° 250° 7 kt METAR LFSL 271430Z AUTO 25007KT 190V310 9999 BKN015/// BKN020/// BKN036/// //////TCU 14/11 Q1012 NOSIG
16:00
V
15 °C 10 km+ 6.400 ft 240° 240° 5 kt METAR LFSL 271400Z AUTO 24005KT 190V310 9999 FEW010 SCT048 BKN064 15/12 Q1012 TEMPO BKN015TCU
15:30
M
13 °C 10 km+ 1.900 ft 260° 260° 5 kt METAR LFSL 271330Z AUTO 26005KT 170V320 9999 -RA BKN019 BKN027 BKN034 13/11 Q1013 NOSIG
15:00
M
14 °C 10 km+ 2.300 ft 280° 280° 8 kt METAR LFSL 271300Z AUTO 28008KT 240V310 9999 BKN023 BKN032 BKN038 14/09 Q1012 NOSIG
14:30
V
14 °C 10 km+ 3.100 ft 260° 260° 7 kt METAR LFSL 271230Z AUTO 26007KT 200V310 9999 FEW024 BKN031 OVC042 14/09 Q1013 TEMPO BKN015TCU
14:00
V
14 °C 10 km+ 3.000 ft 260° 260° 7 kt METAR LFSL 271200Z AUTO 26007KT 200V320 9999 BKN030 BKN038 OVC044 14/08 Q1013 TEMPO BKN015TCU
13:30
V
14 °C 10 km+ 3.600 ft 270° 270° 7 kt METAR LFSL 271130Z AUTO 27007KT 150V320 9999 SCT027 BKN036 OVC042 14/09 Q1013 NOSIG
13:00
V
14 °C 10 km+ 3.200 ft 270° 270° 5 kt METAR LFSL 271100Z AUTO 27005KT 190V320 9999 BKN032 OVC043 14/09 Q1013 NOSIG
12:30
V
14 °C 10 km+ 4.700 ft 270° 270° 7 kt METAR LFSL 271030Z AUTO 27007KT 190V340 9999 FEW018 BKN047 14/08 Q1013 NOSIG
12:00
V
14 °C 10 km+ 4.800 ft 270° 270° 7 kt METAR LFSL 271000Z AUTO 27007KT 210V340 9999 SCT016 OVC048 14/09 Q1013 NOSIG
11:30
M
13 °C 10 km+ 1.300 ft 270° 270° 6 kt METAR LFSL 270930Z AUTO 27006KT 170V320 9999 BKN013 OVC049 13/10 Q1013 BECMG BKN030
11:00
I
12 °C 10 km+ 900 ft 290° 290° 5 kt METAR LFSL 270900Z AUTO 29005KT 230V330 9999 BKN009 BKN013 OVC048 12/10 Q1013 BECMG BKN030
10:30
M
11 °C 10 km+ 1.000 ft 290° 290° 6 kt METAR LFSL 270830Z AUTO 29006KT 9999 BKN010 BKN020 BKN040 11/10 Q1012 BECMG BKN030
10:00
V
11 °C 10 km+ 4.800 ft 270° 270° 5 kt METAR LFSL 270800Z AUTO 27005KT 210V320 9999 FEW007 OVC048 11/09 Q1012 NOSIG
09:30
I
11 °C 10 km+ 700 ft 280° 280° 5 kt METAR LFSL 270730Z AUTO 28005KT 230V320 9999 BKN007 OVC045 11/10 Q1012 BECMG BKN030
09:00
V
11 °C 10 km+ 4.300 ft 270° 270° 4 kt METAR LFSL 270700Z AUTO 27004KT 220V300 9999 OVC043 11/09 Q1012 TEMPO OVC004
08:30
V
11 °C 10 km+ 4.500 ft 280° 280° 4 kt METAR LFSL 270630Z AUTO 28004KT 220V310 9999 FEW006 OVC045 11/10 Q1012 TEMPO OVC004
08:00
I
11 °C 10 km+ 500 ft 280° 280° 4 kt METAR LFSL 270600Z AUTO 28004KT 210V320 9999 OVC005 11/10 Q1012 NOSIG
07:30
I
11 °C 10 km+ 500 ft 270° 270° 3 kt METAR LFSL 270530Z AUTO 27003KT 220V310 9999 BKN005 BKN009 OVC048 11/10 Q1011 NOSIG
07:00
L
11 °C 10 km+ 400 ft Var Var 3 kt METAR LFSL 270500Z AUTO VRB03KT 9999 OVC004 11/10 Q1011 TEMPO OVC005
06:30
V
11 °C 10 km+ 5.000 ft 290° 290° 5 kt METAR LFSL 270430Z AUTO 29005KT 260V320 9999 FEW009 SCT014 OVC050 11/10 Q1011 TEMPO OVC005
06:00
M
11 °C 10 km+ 1.100 ft 300° 300° 6 kt METAR LFSL 270400Z AUTO 30006KT 9999 SCT006 OVC011 11/11 Q1011 TEMPO OVC005
05:30
I
11 °C 10 km+ 900 ft 300° 300° 6 kt METAR LFSL 270330Z AUTO 30006KT 9999 OVC009 11/10 Q1011 NOSIG
05:00
I
12 °C 10 km+ 600 ft 300° 300° 6 kt METAR LFSL 270300Z AUTO 30006KT 270V330 9999 BKN006 BKN013 OVC050 12/11 Q1010 NOSIG
04:30
I
12 °C 10 km+ 500 ft 290° 290° 5 kt METAR LFSL 270230Z AUTO 29005KT 9999 BKN005 BKN010 OVC052 12/11 Q1010
04:00
M
12 °C 10 km+ 1.700 ft 290° 290° 5 kt METAR LFSL 270200Z AUTO 29005KT 9999 FEW006 SCT012 BKN017 12/11 Q1010
03:30
V
12 °C 10 km+ 5.400 ft 300° 300° 7 kt METAR LFSL 270130Z AUTO 30007KT 9999 FEW010 SCT016 OVC054 12/11 Q1010
03:00
M
13 °C 10 km+ 1.000 ft 290° 290° 7 kt METAR LFSL 270100Z AUTO 29007KT 260V320 9999 BKN010 OVC015 13/12 Q1010
02:30
I
13 °C 10 km+ 700 ft 290° 290° 7 kt METAR LFSL 270030Z AUTO 29007KT 250V320 9999 OVC007 13/12 Q1010
02:00
I
13 °C 10 km+ 800 ft 290° 290° 8 kt METAR LFSL 270000Z AUTO 29008KT 240V320 9999 BKN008 BKN024 BKN058 13/12 Q1010
01:30
I
13 °C 10 km+ 900 ft 280° 280° 8 kt METAR LFSL 262330Z AUTO 28008KT 230V330 9999 BKN009 BKN013 OVC018 13/12 Q1009
01:00
I
13 °C 10 km+ 700 ft 250° 250° 4 kt METAR LFSL 262300Z AUTO 25004KT 180V310 9999 BKN007 OVC013 13/12 Q1009
00:30
I
13 °C 10 km+ 700 ft 240° 240° 6 kt METAR LFSL 262230Z AUTO 24006KT 190V300 9999 BKN007 BKN012 OVC018 13/12 Q1010
00:00
I
13 °C 10 km+ 600 ft Var Var 6 kt METAR LFSL 262200Z AUTO VRB06KT 9999 OVC006 13/12 Q1010

26. September 2022

Uhrzeit Code Wetter Temp. Sichtweite Wolkendecke Wind METAR/SPECI
23:30
I
12 °C 4,5 km 500 ft 270° 270° 6 kt METAR LFSL 262130Z AUTO 27006KT 180V310 4500 -RADZ BR OVC005 12/12 Q1010
23:00
I
12 °C 4,5 km 2.000 ft 220° 220° 6 kt METAR LFSL 262100Z AUTO 22006KT 140V270 4500 -RA BR FEW008/// BKN020/// OVC028/// //////TCU 12/11 Q1010
22:30
I
13 °C 4,4 km 2.000 ft 230° 230° 6 - 18 kt METAR LFSL 262030Z AUTO 23006G18KT 170V290 4400 RA BR BKN020/// BKN025/// BKN031/// //////TCU 13/11 Q1010
22:00
V
14 °C 10 km+ 4.400 ft 250° 250° 8 kt METAR LFSL 262000Z AUTO 25008KT 160V310 9999 -RA SCT032/// BKN044/// BKN050/// //////TCU 14/09 Q1010 TEMPO 4000 RA BKN018
21:30
V
15 °C 10 km+ 3.500 ft 260° 260° 7 kt METAR LFSL 261930Z AUTO 26007KT 190V310 9999 -RA BKN035/// BKN042/// OVC060/// //////TCU 15/08 Q1010 TEMPO 4000 RA BKN018
21:00
V
16 °C 10 km+ 5.200 ft 250° 250° 6 kt METAR LFSL 261900Z AUTO 25006KT 190V310 9999 FEW039/// SCT045/// BKN052/// //////TCU 16/07 Q1010 TEMPO 4000 RA BKN018
20:30
V
16 °C 10 km+ 4.800 ft 250° 250° 7 - 19 kt METAR LFSL 261830Z AUTO 25007G19KT 190V330 9999 BKN048 BKN054 OVC072 16/07 Q1010 TEMPO 4000 RA
20:00
V
17 °C 10 km+ - 250° 250° 5 kt METAR LFSL 261800Z AUTO 25005KT 180V330 CAVOK 17/08 Q1010 TEMPO 4000 RA
19:30
V
17 °C 10 km+ - 250° 250° 7 kt METAR LFSL 261730Z AUTO 25007KT 180V310 CAVOK 17/08 Q1010 TEMPO 4000 RA
19:00
V
17 °C 10 km+ - 250° 250° 8 kt METAR LFSL 261700Z AUTO 25008KT 180V310 CAVOK 17/07 Q1011 NOSIG
18:30
V
18 °C 10 km+ 6.800 ft 270° 270° 7 kt METAR LFSL 261630Z AUTO 27007KT 220V330 9999 SCT049 BKN068 18/07 Q1011 NOSIG
18:00
V
18 °C 10 km+ 6.800 ft 240° 240° 7 kt METAR LFSL 261600Z AUTO 24007KT 180V300 9999 FEW045 BKN068 BKN140 18/08 Q1011 NOSIG
17:30
V
18 °C 10 km+ 5.800 ft 270° 270° 8 - 20 kt METAR LFSL 261530Z AUTO 27008G20KT 210V340 9999 SCT044 BKN058 BKN068 18/08 Q1011 NOSIG
17:00
V
17 °C 10 km+ 4.100 ft 260° 260° 8 kt METAR LFSL 261500Z AUTO 26008KT 190V310 9999 BKN041 BKN054 BKN066 17/08 Q1012 NOSIG
16:30
V
17 °C 10 km+ 6.400 ft 260° 260° 8 kt METAR LFSL 261430Z AUTO 26008KT 170V320 9999 FEW037 BKN064 BKN130 17/08 Q1012 NOSIG
16:00
V
17 °C 10 km+ 4.000 ft 250° 250° 4 kt METAR LFSL 261400Z AUTO 25004KT 190V300 9999 BKN040 BKN054 BKN066 17/09 Q1012 NOSIG
15:30
V
18 °C 10 km+ 16.000 ft 270° 270° 8 kt METAR LFSL 261330Z AUTO 27008KT 210V340 9999 FEW041 SCT066 BKN160 18/08 Q1012 NOSIG
15:00
V
18 °C 10 km+ 6.400 ft Var Var 6 kt METAR LFSL 261300Z AUTO VRB06KT 9999 FEW037 SCT052 BKN064 18/09 Q1012 NOSIG
Ältere Daten

Wir und Dritte verfolgen dein Internetverhalten auf unserer Website mit Cookies. Wenn du fortfährst, gehen wir davon aus, dass du mit unserer Cookie-Richtlinie einverstanden bist. Mehr erfahren